Time;durP1;ratioP1;P1;durP2;ratioP2;P2;SDS_P1;SDS_P2;PMS_P1;PMS_P2;Temp;Humidity;BMP_temperature;BMP_pressure;BME280_temperature;BME280_humidity;BME280_pressure;Samples;Min_cycle;Max_cycle;Signal;HPM_P1;HPM_P2
2021/12/03 00:00:22;;;;;;;6.90;4.47;;;;;;;;;;6156874;23;20186;-80
2021/12/03 00:02:50;;;;;;;7.47;4.87;;;;;;;;;;6159939;23;20190;-80
2021/12/03 00:05:17;;;;;;;6.77;5.10;;;;;;;;;;6161742;23;20277;-80
2021/12/03 00:07:44;;;;;;;5.90;4.57;;;;;;;;;;6162804;23;20174;-80
2021/12/03 00:10:13;;;;;;;6.97;5.10;;;;;;;;;;6164908;23;20175;-80
2021/12/03 00:12:41;;;;;;;8.47;5.00;;;;;;;;;;6166115;23;20175;-80
2021/12/03 00:15:10;;;;;;;6.73;6.03;;;;;;;;;;6167586;23;20190;-80
2021/12/03 00:17:38;;;;;;;6.80;4.90;;;;;;;;;;6164532;23;20190;-80
2021/12/03 00:20:05;;;;;;;8.40;5.37;;;;;;;;;;6157464;23;20230;-80
2021/12/03 00:22:33;;;;;;;9.03;6.03;;;;;;;;;;6156508;23;20186;-80
2021/12/03 00:25:00;;;;;;;7.27;5.77;;;;;;;;;;6162427;23;20227;-80
2021/12/03 00:27:27;;;;;;;8.87;6.07;;;;;;;;;;6167922;23;20216;-81
2021/12/03 00:29:54;;;;;;;6.90;6.03;;;;;;;;;;6165042;23;20197;-79
2021/12/03 00:32:23;;;;;;;7.43;5.67;;;;;;;;;;6167310;23;20186;-81
2021/12/03 00:34:50;;;;;;;7.50;5.53;;;;;;;;;;6168188;23;20181;-79
2021/12/03 00:37:17;;;;;;;7.03;5.37;;;;;;;;;;6167446;23;20175;-79
2021/12/03 00:39:45;;;;;;;8.30;5.87;;;;;;;;;;6159725;23;20170;-79
2021/12/03 00:42:15;;;;;;;8.73;5.63;;;;;;;;;;6157211;23;20182;-80
2021/12/03 00:44:44;;;;;;;7.60;5.70;;;;;;;;;;6156836;23;20171;-80
2021/12/03 00:47:11;;;;;;;10.77;6.57;;;;;;;;;;6157050;23;20273;-79
2021/12/03 00:49:40;;;;;;;7.33;5.40;;;;;;;;;;6157351;23;20197;-80
2021/12/03 00:52:07;;;;;;;5.60;5.00;;;;;;;;;;6157414;23;20194;-80
2021/12/03 00:54:35;;;;;;;8.73;5.57;;;;;;;;;;6156951;23;20197;-80
2021/12/03 00:57:02;;;;;;;6.87;5.80;;;;;;;;;;6157195;23;20183;-80
2021/12/03 00:59:29;;;;;;;8.03;5.57;;;;;;;;;;6156513;23;20182;-79
2021/12/03 01:01:56;;;;;;;6.67;5.43;;;;;;;;;;6156265;23;20266;-80
2021/12/03 01:04:24;;;;;;;8.27;5.80;;;;;;;;;;6156489;23;20217;-80
2021/12/03 01:06:52;;;;;;;6.23;5.40;;;;;;;;;;6156247;23;20697;-82
2021/12/03 01:09:21;;;;;;;6.50;5.50;;;;;;;;;;6155723;23;20174;-80
2021/12/03 01:11:48;;;;;;;5.90;5.17;;;;;;;;;;6156441;23;20229;-81
2021/12/03 01:14:15;;;;;;;6.00;5.17;;;;;;;;;;6156460;23;20194;-79
2021/12/03 01:16:42;;;;;;;6.27;5.40;;;;;;;;;;6156436;23;20190;-79
2021/12/03 01:19:10;;;;;;;7.53;5.87;;;;;;;;;;6156394;23;20197;-80
2021/12/03 01:21:37;;;;;;;6.33;5.63;;;;;;;;;;6156191;23;20245;-80
2021/12/03 01:24:07;;;;;;;7.07;5.77;;;;;;;;;;6156227;23;20170;-79
2021/12/03 01:26:35;;;;;;;6.70;6.00;;;;;;;;;;6156744;23;20251;-80
2021/12/03 01:29:03;;;;;;;6.37;5.60;;;;;;;;;;6156525;23;20257;-80
2021/12/03 01:31:30;;;;;;;6.73;5.53;;;;;;;;;;6156259;23;20233;-80
2021/12/03 01:33:57;;;;;;;9.27;5.80;;;;;;;;;;6156324;23;20191;-79
2021/12/03 01:36:25;;;;;;;8.13;5.80;;;;;;;;;;6156655;23;20265;-79
2021/12/03 01:38:52;;;;;;;8.20;6.23;;;;;;;;;;6155908;23;20175;-80
2021/12/03 01:41:21;;;;;;;10.47;6.43;;;;;;;;;;6156475;23;20193;-79
2021/12/03 01:43:48;;;;;;;9.07;6.03;;;;;;;;;;6156382;23;20246;-79
2021/12/03 01:46:19;;;;;;;7.40;5.73;;;;;;;;;;6156605;23;20261;-80
2021/12/03 01:48:46;;;;;;;7.23;6.27;;;;;;;;;;6156477;23;20245;-80
2021/12/03 01:51:13;;;;;;;7.13;6.43;;;;;;;;;;6156486;23;20178;-82
2021/12/03 01:53:41;;;;;;;7.40;5.83;;;;;;;;;;6156357;23;20202;-80
2021/12/03 01:56:10;;;;;;;7.43;6.07;;;;;;;;;;6156184;23;20278;-80
2021/12/03 01:58:39;;;;;;;8.53;6.07;;;;;;;;;;6156036;23;20182;-80
2021/12/03 02:01:08;;;;;;;7.73;5.80;;;;;;;;;;6156432;23;20244;-80
2021/12/03 02:03:36;;;;;;;7.87;6.83;;;;;;;;;;6155667;23;20177;-80
2021/12/03 02:06:04;;;;;;;7.57;5.83;;;;;;;;;;6155916;23;20210;-81
2021/12/03 02:08:32;;;;;;;8.13;6.33;;;;;;;;;;6155653;23;20198;-81
2021/12/03 02:10:59;;;;;;;8.03;6.87;;;;;;;;;;6155952;23;20197;-80
2021/12/03 02:13:26;;;;;;;8.77;6.57;;;;;;;;;;6155570;23;20175;-80
2021/12/03 02:15:55;;;;;;;8.53;6.67;;;;;;;;;;6156198;23;20197;-80
2021/12/03 02:18:22;;;;;;;8.37;6.30;;;;;;;;;;6154358;23;20201;-79
2021/12/03 02:20:51;;;;;;;9.77;6.30;;;;;;;;;;6155806;23;20190;-80
2021/12/03 02:23:18;;;;;;;7.00;6.30;;;;;;;;;;6155621;23;20214;-81
2021/12/03 02:25:46;;;;;;;8.93;6.80;;;;;;;;;;6155637;23;20277;-80
2021/12/03 02:28:14;;;;;;;7.63;6.60;;;;;;;;;;6155574;23;20191;-80
2021/12/03 02:30:42;;;;;;;8.60;6.50;;;;;;;;;;6155781;23;20191;-80
2021/12/03 02:33:09;;;;;;;8.03;6.60;;;;;;;;;;6155286;23;20674;-80
2021/12/03 02:35:39;;;;;;;9.30;6.43;;;;;;;;;;6155344;23;20194;-81
2021/12/03 02:38:08;;;;;;;7.27;6.43;;;;;;;;;;6155833;23;20193;-80
2021/12/03 02:40:35;;;;;;;8.27;6.77;;;;;;;;;;6155792;23;20171;-80
2021/12/03 02:43:03;;;;;;;8.17;6.60;;;;;;;;;;6155653;23;20229;-80
2021/12/03 02:45:31;;;;;;;9.23;6.70;;;;;;;;;;6155604;23;20217;-80
2021/12/03 02:48:00;;;;;;;8.70;6.47;;;;;;;;;;6155940;23;20201;-80
2021/12/03 02:50:27;;;;;;;8.53;6.60;;;;;;;;;;6155508;23;20257;-80
2021/12/03 02:52:54;;;;;;;9.37;6.97;;;;;;;;;;6155255;23;20201;-78
2021/12/03 02:55:25;;;;;;;10.10;6.53;;;;;;;;;;6155696;23;20214;-80
2021/12/03 02:57:52;;;;;;;9.43;7.00;;;;;;;;;;6155251;23;20213;-80
2021/12/03 03:00:20;;;;;;;7.83;7.03;;;;;;;;;;6155310;23;20175;-80
2021/12/03 03:02:47;;;;;;;7.93;6.40;;;;;;;;;;6155240;23;20549;-81
2021/12/03 03:05:15;;;;;;;8.80;6.70;;;;;;;;;;6154964;23;20273;-80
2021/12/03 03:07:43;;;;;;;10.33;7.20;;;;;;;;;;6156197;23;20206;-80
2021/12/03 03:10:14;;;;;;;9.50;7.63;;;;;;;;;;6155446;23;20193;-80
2021/12/03 03:12:43;;;;;;;9.50;7.30;;;;;;;;;;6155522;23;20178;-80
2021/12/03 03:15:11;;;;;;;10.33;7.47;;;;;;;;;;6154894;23;20277;-80
2021/12/03 03:17:39;;;;;;;10.83;7.90;;;;;;;;;;6155279;23;20217;-80
2021/12/03 03:20:07;;;;;;;11.37;8.23;;;;;;;;;;6155029;23;20245;-81
2021/12/03 03:22:34;;;;;;;10.17;7.77;;;;;;;;;;6154509;23;20242;-80
2021/12/03 03:25:01;;;;;;;9.97;8.07;;;;;;;;;;6154734;23;20265;-80
2021/12/03 03:27:31;;;;;;;10.10;7.83;;;;;;;;;;6155128;23;20186;-80
2021/12/03 03:30:00;;;;;;;9.67;7.30;;;;;;;;;;6155209;23;20265;-80
2021/12/03 03:32:28;;;;;;;10.17;7.57;;;;;;;;;;6155006;23;20233;-80
2021/12/03 03:34:56;;;;;;;9.77;7.80;;;;;;;;;;6155250;23;20226;-80
2021/12/03 03:37:23;;;;;;;8.97;7.47;;;;;;;;;;6154874;23;20230;-81
2021/12/03 03:39:50;;;;;;;8.73;7.37;;;;;;;;;;6155389;23;20206;-79
2021/12/03 03:42:18;;;;;;;11.73;7.73;;;;;;;;;;6154246;23;20251;-80
2021/12/03 03:44:45;;;;;;;9.33;7.13;;;;;;;;;;6155303;23;20201;-80
2021/12/03 03:47:14;;;;;;;8.47;7.30;;;;;;;;;;6154421;23;20206;-80
2021/12/03 03:49:42;;;;;;;9.77;7.77;;;;;;;;;;6154648;23;20193;-80
2021/12/03 03:52:09;;;;;;;8.97;7.13;;;;;;;;;;6153974;23;20226;-80
2021/12/03 03:54:37;;;;;;;7.50;6.70;;;;;;;;;;6154335;23;20242;-80
2021/12/03 03:57:04;;;;;;;8.37;6.90;;;;;;;;;;6153951;23;20241;-82
2021/12/03 03:59:31;;;;;;;8.43;7.10;;;;;;;;;;6153761;23;20194;-81
2021/12/03 04:01:59;;;;;;;10.30;7.50;;;;;;;;;;6154671;23;20253;-80
2021/12/03 04:04:27;;;;;;;8.83;7.33;;;;;;;;;;6154754;23;20222;-81
2021/12/03 04:06:55;;;;;;;8.27;6.77;;;;;;;;;;6154227;23;20278;-80
2021/12/03 04:09:22;;;;;;;9.20;7.37;;;;;;;;;;6154632;23;20181;-80
2021/12/03 04:11:49;;;;;;;8.00;6.93;;;;;;;;;;6160965;23;20201;-80
2021/12/03 04:14:16;;;;;;;7.83;7.00;;;;;;;;;;6165995;23;20253;-80
2021/12/03 04:16:43;;;;;;;7.63;6.67;;;;;;;;;;6165671;23;20219;-80
2021/12/03 04:19:11;;;;;;;9.17;7.13;;;;;;;;;;6161984;23;20171;-80
2021/12/03 04:21:39;;;;;;;7.80;6.50;;;;;;;;;;6156186;23;20226;-80
2021/12/03 04:24:07;;;;;;;8.37;6.83;;;;;;;;;;6157445;23;20178;-80
2021/12/03 04:26:34;;;;;;;7.80;7.00;;;;;;;;;;6156871;23;20269;-80
2021/12/03 04:29:01;;;;;;;7.73;6.80;;;;;;;;;;6156915;23;20266;-80
2021/12/03 04:31:28;;;;;;;9.03;7.33;;;;;;;;;;6156725;23;20262;-78
2021/12/03 04:33:56;;;;;;;8.03;6.57;;;;;;;;;;6156717;23;20254;-80
2021/12/03 04:36:23;;;;;;;7.70;6.93;;;;;;;;;;6155908;23;20201;-80
2021/12/03 04:38:52;;;;;;;7.80;6.43;;;;;;;;;;6155858;23;20197;-80
2021/12/03 04:41:19;;;;;;;9.83;7.07;;;;;;;;;;6156565;23;20191;-80
2021/12/03 04:43:46;;;;;;;7.97;7.17;;;;;;;;;;6157304;23;20174;-80
2021/12/03 04:46:13;;;;;;;9.70;8.27;;;;;;;;;;6157792;23;20241;-80
2021/12/03 04:48:40;;;;;;;8.73;7.23;;;;;;;;;;6156493;23;20186;-80
2021/12/03 04:51:08;;;;;;;7.60;6.37;;;;;;;;;;6155754;23;20213;-83
2021/12/03 04:53:35;;;;;;;11.20;7.00;;;;;;;;;;6155910;23;20179;-80
2021/12/03 04:56:03;;;;;;;7.33;6.63;;;;;;;;;;6155867;23;20273;-81
2021/12/03 04:58:31;;;;;;;7.20;6.50;;;;;;;;;;6157111;23;20198;-80
2021/12/03 05:00:59;;;;;;;7.23;6.40;;;;;;;;;;6156829;23;20258;-80
2021/12/03 05:03:29;;;;;;;8.43;7.47;;;;;;;;;;6157747;23;20186;-81
2021/12/03 05:05:58;;;;;;;7.13;6.43;;;;;;;;;;6157242;23;20261;-80
2021/12/03 05:08:26;;;;;;;9.07;7.20;;;;;;;;;;6152221;23;20191;-84
2021/12/03 05:10:54;;;;;;;7.00;6.30;;;;;;;;;;6158564;23;20185;-84
2021/12/03 05:13:24;;;;;;;8.93;7.10;;;;;;;;;;6158509;23;20184;-85
2021/12/03 05:15:52;;;;;;;7.43;6.63;;;;;;;;;;6159741;23;20229;-85
2021/12/03 05:18:20;;;;;;;7.70;6.83;;;;;;;;;;6160092;23;20175;-85
2021/12/03 05:20:49;;;;;;;8.10;6.93;;;;;;;;;;6161615;23;20170;-85
2021/12/03 05:23:17;;;;;;;7.83;6.63;;;;;;;;;;6165206;23;20196;-85
2021/12/03 05:25:44;;;;;;;9.13;6.77;;;;;;;;;;6165799;23;20179;-85
2021/12/03 05:28:11;;;;;;;7.53;6.70;;;;;;;;;;6163773;23;20194;-87
2021/12/03 05:30:40;;;;;;;7.93;6.87;;;;;;;;;;6164433;23;20182;-85
2021/12/03 05:33:08;;;;;;;8.10;6.67;;;;;;;;;;6164202;23;20185;-86
2021/12/03 05:35:35;;;;;;;7.70;6.87;;;;;;;;;;6164952;23;20178;-85
2021/12/03 05:38:05;;;;;;;7.50;6.27;;;;;;;;;;6164706;23;20607;-85
2021/12/03 05:40:33;;;;;;;8.60;6.93;;;;;;;;;;6163161;23;20205;-86
2021/12/03 05:43:00;;;;;;;6.90;6.20;;;;;;;;;;6163357;23;20566;-86
2021/12/03 05:45:29;;;;;;;6.77;6.13;;;;;;;;;;6161955;23;20229;-85
2021/12/03 05:48:00;;;;;;;7.03;6.20;;;;;;;;;;6162353;23;20194;-86
2021/12/03 05:50:40;;;;;;;7.40;6.63;;;;;;;;;;6162410;23;20206;-85
2021/12/03 05:53:07;;;;;;;8.93;7.13;;;;;;;;;;6160462;23;20196;-86
2021/12/03 05:55:34;;;;;;;8.33;6.93;;;;;;;;;;6161119;23;20198;-86
2021/12/03 05:58:08;;;;;;;8.90;6.60;;;;;;;;;;6162120;23;20171;-84
2021/12/03 06:00:37;;;;;;;7.90;6.60;;;;;;;;;;6159767;23;20175;-84
2021/12/03 06:03:06;;;;;;;7.20;6.43;;;;;;;;;;6158946;23;20179;-84
2021/12/03 06:05:35;;;;;;;7.60;5.90;;;;;;;;;;6159164;23;20182;-85
2021/12/03 06:08:02;;;;;;;7.17;6.30;;;;;;;;;;6159835;23;20187;-85
2021/12/03 06:10:29;;;;;;;8.73;6.60;;;;;;;;;;6162482;23;20257;-86
2021/12/03 06:13:00;;;;;;;6.73;6.03;;;;;;;;;;6160456;23;20233;-87
2021/12/03 06:15:28;;;;;;;6.70;5.73;;;;;;;;;;6157620;23;20170;-85
2021/12/03 06:17:55;;;;;;;8.43;6.70;;;;;;;;;;6157239;23;20175;-85
2021/12/03 06:20:24;;;;;;;7.10;6.40;;;;;;;;;;6157513;23;20198;-84
2021/12/03 06:22:54;;;;;;;6.90;6.20;;;;;;;;;;6157418;23;20194;-86
2021/12/03 06:25:24;;;;;;;7.47;6.37;;;;;;;;;;6158528;23;20170;-85
2021/12/03 06:27:54;;;;;;;8.57;6.87;;;;;;;;;;6159014;23;20194;-83
2021/12/03 06:30:23;;;;;;;7.33;6.50;;;;;;;;;;6157453;23;20195;-84
2021/12/03 06:32:50;;;;;;;6.67;5.97;;;;;;;;;;6157888;23;20707;-86
2021/12/03 06:35:18;;;;;;;7.67;6.57;;;;;;;;;;6158466;23;20174;-85
2021/12/03 06:37:48;;;;;;;6.70;5.97;;;;;;;;;;6158846;23;20170;-85
2021/12/03 06:40:16;;;;;;;7.10;5.67;;;;;;;;;;6157581;23;20206;-84
2021/12/03 06:42:44;;;;;;;6.60;5.90;;;;;;;;;;6158201;23;20230;-85
2021/12/03 06:45:12;;;;;;;6.40;4.97;;;;;;;;;;6157831;23;20241;-84
2021/12/03 06:47:39;;;;;;;5.73;5.13;;;;;;;;;;6156923;23;20210;-85
2021/12/03 06:50:08;;;;;;;7.40;5.47;;;;;;;;;;6157523;23;20246;-85
2021/12/03 06:52:38;;;;;;;6.97;5.73;;;;;;;;;;6157955;23;20177;-86
2021/12/03 06:55:10;;;;;;;8.70;5.60;;;;;;;;;;6156916;23;20174;-84
2021/12/03 06:57:37;;;;;;;7.17;5.57;;;;;;;;;;6158072;23;20163;-85
2021/12/03 07:00:05;;;;;;;8.07;6.00;;;;;;;;;;6157940;23;20194;-85
2021/12/03 07:02:33;;;;;;;7.73;6.10;;;;;;;;;;6160341;23;20174;-85
2021/12/03 07:05:00;;;;;;;6.23;5.63;;;;;;;;;;6160402;23;20178;-86
2021/12/03 07:07:27;;;;;;;9.03;5.73;;;;;;;;;;6157689;23;20194;-84
2021/12/03 07:09:55;;;;;;;6.07;5.57;;;;;;;;;;6156653;23;20210;-84
2021/12/03 07:12:24;;;;;;;6.47;5.20;;;;;;;;;;6157682;23;20191;-82
2021/12/03 07:14:52;;;;;;;6.20;5.50;;;;;;;;;;6160255;23;20171;-85
2021/12/03 07:17:19;;;;;;;7.30;5.17;;;;;;;;;;6158161;23;20170;-84
2021/12/03 07:19:46;;;;;;;5.67;5.03;;;;;;;;;;6163935;23;20204;-84
2021/12/03 07:22:14;;;;;;;5.83;5.20;;;;;;;;;;6160780;23;20178;-86
2021/12/03 07:24:45;;;;;;;5.47;4.97;;;;;;;;;;6165417;23;20175;-84
2021/12/03 07:27:13;;;;;;;6.70;5.77;;;;;;;;;;6167393;23;20185;-82
2021/12/03 07:29:46;;;;;;;6.87;5.27;;;;;;;;;;6170137;23;20194;-86
2021/12/03 07:32:14;;;;;;;6.90;5.40;;;;;;;;;;6166768;23;20166;-84
2021/12/03 07:34:41;;;;;;;8.20;5.80;;;;;;;;;;6157793;23;20233;-85
2021/12/03 07:37:08;;;;;;;6.60;5.77;;;;;;;;;;6157442;23;20201;-87
2021/12/03 07:39:36;;;;;;;6.23;5.47;;;;;;;;;;6158315;23;20225;-83
2021/12/03 07:42:03;;;;;;;6.37;5.77;;;;;;;;;;6160209;23;20182;-85
2021/12/03 07:44:31;;;;;;;7.23;6.53;;;;;;;;;;6157936;23;20178;-85
2021/12/03 07:47:03;;;;;;;6.70;5.60;;;;;;;;;;6158368;23;20518;-84
2021/12/03 07:49:31;;;;;;;8.60;6.57;;;;;;;;;;6158505;23;20214;-85
2021/12/03 07:52:01;;;;;;;11.30;9.00;;;;;;;;;;6159056;23;20603;-85
2021/12/03 07:54:28;;;;;;;8.03;6.90;;;;;;;;;;6160392;23;20171;-85
2021/12/03 07:56:55;;;;;;;8.07;6.57;;;;;;;;;;6162418;23;20178;-84
2021/12/03 07:59:23;;;;;;;6.43;5.73;;;;;;;;;;6159974;23;20245;-84
2021/12/03 08:01:50;;;;;;;6.37;5.70;;;;;;;;;;6158479;23;20174;-85
2021/12/03 08:04:19;;;;;;;7.40;5.63;;;;;;;;;;6159868;23;20249;-86
2021/12/03 08:06:51;;;;;;;7.33;5.60;;;;;;;;;;6158354;23;20202;-85
2021/12/03 08:09:19;;;;;;;6.10;5.50;;;;;;;;;;6157762;23;20199;-85
2021/12/03 08:11:46;;;;;;;7.37;5.67;;;;;;;;;;6159324;23;20180;-85
2021/12/03 08:14:13;;;;;;;8.50;6.20;;;;;;;;;;6160298;23;20175;-86
2021/12/03 08:16:43;;;;;;;6.90;6.20;;;;;;;;;;6158326;23;20175;-85
2021/12/03 08:19:11;;;;;;;6.73;6.03;;;;;;;;;;6157565;23;20194;-85
2021/12/03 08:21:39;;;;;;;7.33;6.00;;;;;;;;;;6157795;23;20175;-85
2021/12/03 08:24:07;;;;;;;6.63;5.93;;;;;;;;;;6159867;23;20171;-84
2021/12/03 08:26:34;;;;;;;6.17;5.60;;;;;;;;;;6158391;23;20177;-85
2021/12/03 08:29:04;;;;;;;6.37;5.70;;;;;;;;;;6159880;23;20199;-84
2021/12/03 08:31:31;;;;;;;7.00;6.17;;;;;;;;;;6160198;23;20186;-84
2021/12/03 08:34:01;;;;;;;7.93;6.47;;;;;;;;;;6159796;23;20174;-85
2021/12/03 08:36:28;;;;;;;6.03;5.37;;;;;;;;;;6159754;23;20171;-83
2021/12/03 08:38:57;;;;;;;5.30;4.80;;;;;;;;;;6160345;23;20248;-85
2021/12/03 08:41:27;;;;;;;7.27;4.97;;;;;;;;;;6159413;23;20186;-84
2021/12/03 08:43:54;;;;;;;4.57;4.17;;;;;;;;;;6160557;23;20174;-84
2021/12/03 08:46:27;;;;;;;5.53;4.67;;;;;;;;;;6159776;23;20198;-85
2021/12/03 08:49:04;;;;;;;4.30;3.90;;;;;;;;;;6160399;23;20205;-85
2021/12/03 08:51:46;;;;;;;4.20;3.80;;;;;;;;;;6162169;23;20193;-85
2021/12/03 08:57:02;;;;;;;3.70;3.40;;;;;;;;;;6161536;23;20163;-83
2021/12/03 08:59:29;;;;;;;3.50;3.20;;;;;;;;;;6161310;23;20190;-84
2021/12/03 09:01:57;;;;;;;3.50;2.87;;;;;;;;;;6161486;23;20233;-84
2021/12/03 09:04:24;;;;;;;4.10;3.20;;;;;;;;;;6162562;23;20245;-85
2021/12/03 09:06:54;;;;;;;3.97;3.50;;;;;;;;;;6161927;23;20179;-85
2021/12/03 09:09:23;;;;;;;3.53;3.23;;;;;;;;;;6160505;23;20234;-85
2021/12/03 09:11:52;;;;;;;4.43;3.50;;;;;;;;;;6163011;23;20174;-86
2021/12/03 09:14:25;;;;;;;3.43;3.20;;;;;;;;;;6169790;23;20174;-86
2021/12/03 09:16:59;;;;;;;4.60;2.97;;;;;;;;;;6177283;23;20162;-86
2021/12/03 09:19:30;;;;;;;3.80;3.20;;;;;;;;;;6163403;23;20186;-84
2021/12/03 09:22:00;;;;;;;6.47;3.30;;;;;;;;;;6165016;23;20180;-85
2021/12/03 09:24:34;;;;;;;3.80;3.50;;;;;;;;;;6162426;23;20217;-86
2021/12/03 09:27:03;;;;;;;4.27;3.00;;;;;;;;;;6162157;23;20177;-86
2021/12/03 09:29:33;;;;;;;4.53;3.10;;;;;;;;;;6160927;23;20273;-85
2021/12/03 09:32:01;;;;;;;3.50;3.20;;;;;;;;;;6161284;23;20170;-86
2021/12/03 09:34:35;;;;;;;4.23;3.67;;;;;;;;;;6161155;23;20182;-85
2021/12/03 09:37:02;;;;;;;5.03;3.30;;;;;;;;;;6165646;23;20162;-85
2021/12/03 09:39:31;;;;;;;3.30;3.00;;;;;;;;;;6162070;23;20269;-85
2021/12/03 09:41:59;;;;;;;4.13;2.93;;;;;;;;;;6165218;23;20175;-85
2021/12/03 09:44:30;;;;;;;3.73;2.77;;;;;;;;;;6164318;23;20226;-85
2021/12/03 09:46:58;;;;;;;4.03;2.73;;;;;;;;;;6161967;23;20574;-86
2021/12/03 09:49:31;;;;;;;5.80;2.70;;;;;;;;;;6159617;23;20202;-84
2021/12/03 09:54:49;;;;;;;6.23;3.20;;;;;;;;;;6156940;23;20170;-87
2021/12/03 09:57:20;;;;;;;4.83;2.70;;;;;;;;;;6162203;23;20217;-85
2021/12/03 10:02:42;;;;;;;4.43;2.60;;;;;;;;;;6161889;23;20154;-85
2021/12/03 10:13:30;;;;;;;3.07;2.77;;;;;;;;;;6163763;23;20162;-85
2021/12/03 10:16:02;;;;;;;5.80;3.00;;;;;;;;;;6163442;23;20171;-85
2021/12/03 10:18:39;;;;;;;3.47;3.10;;;;;;;;;;6163305;23;20218;-86
2021/12/03 10:21:18;;;;;;;5.77;3.00;;;;;;;;;;6165411;23;20178;-85
2021/12/03 10:29:40;;;;;;;3.30;2.83;;;;;;;;;;6139614;23;20190;-85
2021/12/03 10:38:25;;;;;;;4.70;3.03;;;;;;;;;;6099768;23;20156;-84
2021/12/03 10:41:18;;;;;;;3.10;2.80;;;;;;;;;;6098468;23;20176;-85
2021/12/03 10:44:04;;;;;;;4.40;3.27;;;;;;;;;;6150870;23;20182;-85
2021/12/03 10:47:05;;;;;;;4.27;3.57;;;;;;;;;;6159873;23;20179;-86
2021/12/03 10:50:01;;;;;;;5.43;3.40;;;;;;;;;;6160885;23;20212;-84
2021/12/03 10:52:50;;;;;;;3.30;2.83;;;;;;;;;;6159875;23;20179;-85
2021/12/03 11:27:57;;;;;;;3.47;3.17;;;;;;;;;;6168360;23;20177;-79
2021/12/03 14:45:09;;;;;;;4.10;2.20;;;;;;;;;;6058446;23;20183;-87
2021/12/03 14:48:26;;;;;;;2.20;2.00;;;;;;;;;;6069262;23;20184;-85
2021/12/03 15:06:55;;;;;;;2.23;2.00;;;;;;;;;;6071303;23;20164;-82
2021/12/03 16:26:36;;;;;;;6.70;3.90;;;;;;;;;;6073076;23;20177;-83
2021/12/03 16:43:52;;;;;;;3.40;3.10;;;;;;;;;;6076227;23;20172;-82
2021/12/03 16:52:44;;;;;;;4.97;3.80;;;;;;;;;;6158282;23;20185;-82
2021/12/03 16:55:16;;;;;;;5.93;3.77;;;;;;;;;;6162116;23;20173;-82
2021/12/03 17:01:05;;;;;;;3.83;3.40;;;;;;;;;;6130438;23;20233;-83
2021/12/03 17:15:18;;;;;;;4.10;3.40;;;;;;;;;;6152124;23;20174;-84
2021/12/03 17:29:18;;;;;;;6.07;4.07;;;;;;;;;;6141209;23;20228;-83
2021/12/03 18:00:19;;;;;;;4.80;3.60;;;;;;;;;;6068138;23;20171;-88
2021/12/03 18:09:07;;;;;;;3.70;3.30;;;;;;;;;;6067465;23;20220;-90
2021/12/03 18:44:07;;;;;;;4.23;3.60;;;;;;;;;;5927636;24;20178;-85
2021/12/03 18:47:02;;;;;;;3.80;3.40;;;;;;;;;;5926750;24;20180;-85
2021/12/03 18:52:31;;;;;;;3.93;3.40;;;;;;;;;;6040646;23;20237;-84
2021/12/03 18:55:05;;;;;;;4.00;3.70;;;;;;;;;;6126479;23;20174;-84
2021/12/03 18:57:39;;;;;;;3.90;3.60;;;;;;;;;;6162577;23;20228;-85
2021/12/03 19:03:19;;;;;;;4.93;4.20;;;;;;;;;;6138044;23;20249;-85
2021/12/03 19:05:57;;;;;;;3.80;3.50;;;;;;;;;;6157997;23;20241;-84
2021/12/03 19:08:36;;;;;;;4.57;3.73;;;;;;;;;;6161061;23;20189;-85
2021/12/03 19:11:10;;;;;;;5.90;3.60;;;;;;;;;;6162051;23;20195;-85
2021/12/03 19:13:41;;;;;;;6.10;3.40;;;;;;;;;;6163220;23;20181;-85
2021/12/03 19:16:28;;;;;;;4.50;4.03;;;;;;;;;;6162482;23;20210;-85
2021/12/03 19:19:03;;;;;;;4.33;3.40;;;;;;;;;;6163370;23;20201;-85
2021/12/03 19:24:30;;;;;;;5.17;3.57;;;;;;;;;;6132165;23;20229;-85
2021/12/03 19:27:08;;;;;;;5.93;3.70;;;;;;;;;;6162478;23;20166;-86
2021/12/03 19:29:38;;;;;;;5.67;3.80;;;;;;;;;;6160784;23;20183;-86
2021/12/03 19:32:09;;;;;;;4.87;4.20;;;;;;;;;;6162481;23;20201;-85
2021/12/03 19:34:36;;;;;;;4.20;3.80;;;;;;;;;;6167411;23;20174;-85
2021/12/03 19:37:04;;;;;;;5.07;4.10;;;;;;;;;;6170766;23;20186;-85
2021/12/03 19:39:38;;;;;;;4.30;3.90;;;;;;;;;;6174086;23;20193;-85
2021/12/03 19:42:11;;;;;;;4.47;3.77;;;;;;;;;;6163659;23;20195;-85
2021/12/03 19:44:43;;;;;;;4.30;3.63;;;;;;;;;;6160705;23;20167;-85
2021/12/03 19:47:12;;;;;;;4.63;4.23;;;;;;;;;;6159118;23;20155;-85
2021/12/03 19:49:49;;;;;;;4.30;3.77;;;;;;;;;;6159438;23;20229;-85
2021/12/03 19:52:26;;;;;;;5.43;3.83;;;;;;;;;;6158262;23;20194;-86
2021/12/03 19:54:57;;;;;;;4.57;4.13;;;;;;;;;;6157129;23;20253;-86
2021/12/03 19:57:26;;;;;;;4.27;3.87;;;;;;;;;;6158433;23;20217;-85
2021/12/03 19:59:56;;;;;;;5.47;4.23;;;;;;;;;;6158317;23;20175;-86
2021/12/03 20:02:27;;;;;;;11.63;4.73;;;;;;;;;;6158481;23;20194;-86
2021/12/03 20:04:58;;;;;;;4.40;3.80;;;;;;;;;;6159903;23;20238;-86
2021/12/03 20:07:29;;;;;;;4.70;3.83;;;;;;;;;;6158121;23;20166;-86
2021/12/03 20:10:04;;;;;;;5.70;4.10;;;;;;;;;;6160499;23;20206;-86
2021/12/03 20:12:33;;;;;;;5.13;4.20;;;;;;;;;;6160860;23;20202;-85
2021/12/03 20:15:04;;;;;;;4.00;3.60;;;;;;;;;;6163973;23;20234;-84
2021/12/03 20:17:34;;;;;;;4.20;3.80;;;;;;;;;;6161929;23;20170;-85
2021/12/03 20:20:03;;;;;;;5.60;4.50;;;;;;;;;;6159130;23;20171;-87
2021/12/03 20:22:44;;;;;;;6.13;4.43;;;;;;;;;;6158428;23;20230;-85
2021/12/03 20:27:57;;;;;;;6.22;4.28;;;;;;;;;;6138678;23;20431;-84
2021/12/03 20:30:35;;;;;;;4.70;4.00;;;;;;;;;;6161461;23;20186;-86
2021/12/03 20:33:11;;;;;;;4.20;3.80;;;;;;;;;;6161972;23;20166;-85
2021/12/03 20:38:32;;;;;;;6.13;4.27;;;;;;;;;;6127397;23;20170;-85
2021/12/03 20:41:25;;;;;;;4.53;4.00;;;;;;;;;;6161569;23;20191;-86
2021/12/03 20:44:03;;;;;;;4.40;4.00;;;;;;;;;;6158136;23;20181;-87
2021/12/03 20:46:43;;;;;;;5.53;4.00;;;;;;;;;;6160996;23;20174;-84
2021/12/03 20:49:21;;;;;;;5.83;4.30;;;;;;;;;;6160127;23;20174;-85
2021/12/03 20:54:36;;;;;;;4.53;4.10;;;;;;;;;;6156029;23;20289;-86
2021/12/03 20:57:44;;;;;;;6.80;4.30;;;;;;;;;;6159651;23;20184;-85
2021/12/03 21:11:32;;;;;;;4.37;3.97;;;;;;;;;;6157407;23;20202;-85
2021/12/03 21:14:15;;;;;;;4.10;3.80;;;;;;;;;;6161361;23;20182;-85
2021/12/03 21:19:35;;;;;;;4.63;4.17;;;;;;;;;;6147338;23;20174;-89
2021/12/03 21:22:05;;;;;;;4.40;4.00;;;;;;;;;;6161492;23;20194;-82
2021/12/03 21:24:42;;;;;;;4.53;4.13;;;;;;;;;;6158466;23;20185;-86
2021/12/03 21:27:17;;;;;;;4.63;4.23;;;;;;;;;;6157913;23;20194;-86
2021/12/03 21:32:45;;;;;;;3.87;3.47;;;;;;;;;;6107867;23;20212;-86
2021/12/03 21:38:37;;;;;;;3.67;3.27;;;;;;;;;;6157289;23;20161;-86
2021/12/03 21:44:00;;;;;;;3.80;3.40;;;;;;;;;;6158723;23;20216;-86
2021/12/03 21:46:28;;;;;;;4.73;3.37;;;;;;;;;;6159050;23;20198;-87
2021/12/03 21:48:57;;;;;;;3.87;3.47;;;;;;;;;;6159630;23;20195;-86
2021/12/03 21:51:32;;;;;;;5.70;4.30;;;;;;;;;;6160735;23;20245;-85
2021/12/03 21:54:00;;;;;;;5.63;4.10;;;;;;;;;;6163620;23;20167;-86
2021/12/03 21:56:31;;;;;;;4.63;3.90;;;;;;;;;;6162321;23;20226;-86
2021/12/03 21:58:58;;;;;;;3.50;3.20;;;;;;;;;;6160658;23;20181;-85
2021/12/03 22:01:26;;;;;;;4.33;3.53;;;;;;;;;;6159542;23;20246;-86
2021/12/03 22:03:53;;;;;;;3.40;3.10;;;;;;;;;;6163388;23;20174;-86
2021/12/03 22:06:25;;;;;;;4.20;3.40;;;;;;;;;;6164487;23;20170;-85
2021/12/03 22:08:54;;;;;;;5.27;4.10;;;;;;;;;;6161515;23;20166;-86
2021/12/03 22:11:22;;;;;;;3.90;3.47;;;;;;;;;;6160432;23;20258;-86
2021/12/03 22:13:49;;;;;;;3.73;3.27;;;;;;;;;;6161301;23;20193;-85
2021/12/03 22:16:16;;;;;;;3.20;2.90;;;;;;;;;;6162909;23;20174;-85
2021/12/03 22:18:46;;;;;;;3.40;3.10;;;;;;;;;;6163190;23;20233;-85
2021/12/03 22:21:13;;;;;;;3.77;3.13;;;;;;;;;;6164672;23;20191;-85
2021/12/03 22:23:43;;;;;;;3.30;3.00;;;;;;;;;;6165923;23;20171;-86
2021/12/03 22:26:10;;;;;;;4.33;3.53;;;;;;;;;;6165650;23;20191;-86
2021/12/03 22:28:38;;;;;;;3.73;3.43;;;;;;;;;;6165706;23;20174;-86
2021/12/03 22:31:06;;;;;;;3.73;3.30;;;;;;;;;;6166768;23;20198;-87
2021/12/03 22:33:33;;;;;;;3.53;3.10;;;;;;;;;;6167569;23;20178;-86
2021/12/03 22:36:01;;;;;;;3.87;3.33;;;;;;;;;;6167218;23;20230;-86
2021/12/03 22:38:28;;;;;;;3.80;3.30;;;;;;;;;;6169135;23;20202;-86
2021/12/03 22:40:59;;;;;;;3.40;3.10;;;;;;;;;;6171350;23;20199;-86
2021/12/03 22:43:32;;;;;;;3.60;3.10;;;;;;;;;;6172835;23;20161;-87
2021/12/03 22:46:02;;;;;;;3.37;3.07;;;;;;;;;;6174131;23;20171;-85
2021/12/03 22:48:40;;;;;;;3.00;2.80;;;;;;;;;;6166213;23;20171;-86
2021/12/03 22:51:20;;;;;;;3.87;3.23;;;;;;;;;;6161133;23;20225;-86
2021/12/03 22:53:48;;;;;;;3.40;3.00;;;;;;;;;;6157515;23;20190;-86
2021/12/03 22:56:17;;;;;;;3.50;3.20;;;;;;;;;;6158364;23;20201;-86
2021/12/03 22:58:46;;;;;;;3.40;3.03;;;;;;;;;;6158731;23;20198;-86
2021/12/03 23:01:18;;;;;;;3.20;2.83;;;;;;;;;;6159815;23;20187;-86
2021/12/03 23:03:45;;;;;;;2.83;2.63;;;;;;;;;;6160430;23;20182;-86
2021/12/03 23:06:13;;;;;;;3.00;2.63;;;;;;;;;;6157424;23;20206;-87
2021/12/03 23:08:40;;;;;;;3.47;3.17;;;;;;;;;;6156880;23;20251;-86
2021/12/03 23:11:11;;;;;;;4.60;3.03;;;;;;;;;;6155238;23;20205;-83
2021/12/03 23:13:49;;;;;;;3.00;2.80;;;;;;;;;;6164727;23;20163;-83
2021/12/03 23:16:34;;;;;;;2.93;2.73;;;;;;;;;;6165558;23;20242;-82
2021/12/03 23:19:02;;;;;;;3.40;2.93;;;;;;;;;;6163373;23;20190;-84
2021/12/03 23:21:41;;;;;;;3.23;2.93;;;;;;;;;;6161993;23;20250;-82
2021/12/03 23:24:20;;;;;;;3.07;2.80;;;;;;;;;;6159041;23;20189;-83